Ko Samui, Thailand
Current Conditions -  °F | °C
As of 10:00 PM on Saturday 20 Dec 2014 (Local Time) from VTSM Reporting Station
Broken Clouds Broken Clouds  
Wind Chill: 28°   Ceiling: 30000
Heat Index: 31°   Visibility: 6mi
Dew Point: 23°   Wind: 8mph
Humidity: 74%   Direction: 30°NNE
Pressure: 29.91"   Gusts: NA
Location:  9.5°N, 100.01°E
Report Text: VTSM 201500Z 03007KT 9999 FEW020 BKN300 28/23 Q1013 A2992
Loading
Personal Weather Stations






























Interactive Weather Map New forecast layout! Learn more

10-Day Weather Forecast

Advertisements
Track Severe Weather on mobile